createdAt,value
2023-03-17T00:01:58.116Z,95407.75
2023-03-17T00:04:28.019Z,95409.66
2023-03-17T00:06:56.848Z,95411.69
2023-03-17T00:09:25.474Z,95399.53
2023-03-17T00:11:55.369Z,95342.97
2023-03-17T00:14:24.391Z,95378.59
2023-03-17T00:16:54.299Z,95389.16
2023-03-17T00:19:27.929Z,95400.41
2023-03-17T00:21:56.418Z,95390.28
2023-03-17T00:24:24.916Z,95395.72
2023-03-17T00:26:54.631Z,95393.19
2023-03-17T00:29:22.978Z,95392.56
2023-03-17T00:31:51.795Z,95391.19
2023-03-17T00:34:21.592Z,95386.41
2023-03-17T00:36:52.318Z,95365.66
2023-03-17T00:39:20.933Z,95381.41
2023-03-17T00:41:49.225Z,95384.16
2023-03-17T00:44:19.033Z,95373.47
2023-03-17T00:46:47.745Z,95374.78
2023-03-17T00:49:18.787Z,95378.81
2023-03-17T00:51:48.114Z,95366.28
2023-03-17T00:54:17.206Z,95366.22
2023-03-17T00:56:46.186Z,95363.84
2023-03-17T00:59:23.113Z,95356.44
2023-03-17T01:01:51.645Z,95358.84
2023-03-17T01:04:20.272Z,95356.34
2023-03-17T01:06:49.684Z,95338.09
2023-03-17T01:09:19.673Z,95340.91
2023-03-17T01:11:48.824Z,95331.59
2023-03-17T01:14:17.670Z,95332.63
2023-03-17T01:16:47.999Z,95329.31
2023-03-17T01:19:17.028Z,95345.81
2023-03-17T01:21:45.795Z,95326.16
2023-03-17T01:24:14.671Z,95318.91
2023-03-17T01:26:43.302Z,95310.41
2023-03-17T01:29:11.636Z,95290.75
2023-03-17T01:31:40.084Z,95274.34
2023-03-17T01:34:10.290Z,95297.38
2023-03-17T01:36:38.695Z,95299.56
2023-03-17T01:39:07.482Z,95280.13
2023-03-17T01:41:36.657Z,95306.88
2023-03-17T01:44:05.795Z,95299.63
2023-03-17T01:46:36.086Z,95273.44
2023-03-17T01:49:11.408Z,95265.00
2023-03-17T01:54:18.508Z,95252.41
2023-03-17T01:56:51.944Z,95275.53
2023-03-17T01:59:25.164Z,95269.28
2023-03-17T02:01:59.443Z,95256.28
2023-03-17T02:04:30.334Z,95277.25
2023-03-17T02:06:59.201Z,95271.53
2023-03-17T02:09:29.661Z,95263.03
2023-03-17T02:12:00.984Z,95258.22
2023-03-17T02:14:30.214Z,95264.19
2023-03-17T02:16:59.150Z,95275.34
2023-03-17T02:19:29.424Z,95265.28
2023-03-17T02:22:00.980Z,95266.41
2023-03-17T02:24:34.787Z,95262.16
2023-03-17T02:27:06.972Z,95260.03
2023-03-17T02:29:37.998Z,95263.75
2023-03-17T02:32:07.132Z,95248.09
2023-03-17T02:34:35.838Z,95250.97
2023-03-17T02:37:05.919Z,95255.72
2023-03-17T02:39:34.318Z,95253.41
2023-03-17T02:42:03.259Z,95251.38
2023-03-17T02:44:31.671Z,95254.25
2023-03-17T02:47:00.126Z,95247.41
2023-03-17T02:49:29.155Z,95256.47
2023-03-17T02:51:57.550Z,95249.63
2023-03-17T02:54:27.565Z,95244.91
2023-03-17T02:56:55.946Z,95260.81
2023-03-17T02:59:24.296Z,95244.16
2023-03-17T03:01:52.663Z,95261.81
2023-03-17T03:04:21.727Z,95249.94
2023-03-17T03:06:50.181Z,95233.72
2023-03-17T03:09:19.103Z,95252.53
2023-03-17T03:11:49.061Z,95242.81
2023-03-17T03:14:17.527Z,95268.31
2023-03-17T03:16:46.087Z,95230.16
2023-03-17T03:19:14.372Z,95183.41
2023-03-17T03:21:42.715Z,95261.31
2023-03-17T03:24:11.802Z,95236.00
2023-03-17T03:26:40.078Z,95231.66
2023-03-17T03:29:10.576Z,95244.28
2023-03-17T03:31:39.541Z,95252.03
2023-03-17T03:34:07.862Z,95237.09
2023-03-17T03:36:37.170Z,95229.75
2023-03-17T03:39:05.627Z,95225.88
2023-03-17T03:41:33.995Z,95240.66
2023-03-17T03:44:02.362Z,95229.88
2023-03-17T03:46:32.880Z,95235.34
2023-03-17T03:49:01.475Z,95259.50
2023-03-17T03:51:29.859Z,95265.34
2023-03-17T03:53:58.196Z,95243.78
2023-03-17T03:56:27.245Z,95193.41
2023-03-17T03:58:56.580Z,95246.63
2023-03-17T04:01:24.922Z,95237.81
2023-03-17T04:03:54.616Z,95235.09
2023-03-17T04:06:23.034Z,95270.19
2023-03-17T04:08:51.336Z,95253.28
2023-03-17T04:11:19.738Z,95246.03
2023-03-17T04:13:48.096Z,95225.84
2023-03-17T04:16:16.566Z,95234.41
2023-03-17T04:18:44.964Z,95241.94
2023-03-17T04:21:18.588Z,95210.78
2023-03-17T04:23:47.409Z,95225.50
2023-03-17T04:26:17.524Z,95236.22
2023-03-17T04:28:46.423Z,95233.81
2023-03-17T04:31:14.726Z,95234.53
2023-03-17T04:33:43.356Z,95215.84
2023-03-17T04:36:19.517Z,95186.53
2023-03-17T04:38:48.161Z,95242.31
2023-03-17T04:41:17.058Z,95185.31
2023-03-17T04:43:45.386Z,95271.56
2023-03-17T04:46:13.799Z,95265.91
2023-03-17T04:48:42.537Z,95279.22
2023-03-17T04:51:11.885Z,95258.34
2023-03-17T04:53:42.108Z,95271.25
2023-03-17T04:56:10.821Z,95283.75
2023-03-17T04:58:39.299Z,95270.22
2023-03-17T05:01:08.822Z,95257.75
2023-03-17T05:03:37.371Z,95246.06
2023-03-17T05:06:06.458Z,95254.75
2023-03-17T05:08:34.862Z,95168.63
2023-03-17T05:11:05.219Z,95255.97
2023-03-17T05:13:33.579Z,95248.28
2023-03-17T05:16:02.464Z,95209.47
2023-03-17T05:18:30.945Z,95263.25
2023-03-17T05:20:59.306Z,95260.56
2023-03-17T05:23:27.892Z,95254.47
2023-03-17T05:25:56.235Z,95227.16
2023-03-17T05:28:26.862Z,95207.28
2023-03-17T05:30:55.922Z,95247.28
2023-03-17T05:33:24.670Z,95242.72
2023-03-17T05:35:53.817Z,95206.84
2023-03-17T05:38:22.258Z,95239.41
2023-03-17T05:40:52.834Z,95198.28
2023-03-17T05:43:21.415Z,95225.88
2023-03-17T05:45:51.855Z,95214.72
2023-03-17T05:48:20.227Z,95222.91
2023-03-17T05:50:48.532Z,95229.69
2023-03-17T05:53:17.644Z,95233.81
2023-03-17T05:55:46.255Z,95224.78
2023-03-17T05:58:15.888Z,95224.28
2023-03-17T06:00:45.439Z,95234.78
2023-03-17T06:03:15.305Z,95167.72
2023-03-17T06:05:43.601Z,95238.41
2023-03-17T06:08:12.089Z,95240.81
2023-03-17T06:10:41.482Z,95244.06
2023-03-17T06:13:11.259Z,95243.69
2023-03-17T06:15:40.000Z,95208.13
2023-03-17T06:18:08.769Z,95242.31
2023-03-17T06:20:38.650Z,95229.53
2023-03-17T06:23:07.675Z,95162.56
2023-03-17T06:25:37.141Z,95234.38
2023-03-17T06:28:06.561Z,95229.56
2023-03-17T06:30:38.103Z,95232.50
2023-03-17T06:33:08.357Z,95235.59
2023-03-17T06:35:38.841Z,95235.09
2023-03-17T06:38:07.442Z,95240.75
2023-03-17T06:40:35.707Z,95210.38
2023-03-17T06:43:04.572Z,95250.13
2023-03-17T06:45:34.002Z,95255.59
2023-03-17T06:48:02.555Z,95257.50
2023-03-17T06:50:31.054Z,95200.81
2023-03-17T06:53:01.192Z,95216.28
2023-03-17T06:55:30.109Z,95243.97
2023-03-17T06:57:59.106Z,95251.00
2023-03-17T07:00:28.595Z,95249.44
2023-03-17T07:02:57.050Z,95248.38
2023-03-17T07:05:25.382Z,95262.41
2023-03-17T07:07:53.911Z,95259.75
2023-03-17T07:10:23.766Z,95257.69
2023-03-17T07:12:52.137Z,95231.41
2023-03-17T07:15:21.022Z,95240.94
2023-03-17T07:17:49.310Z,95237.47
2023-03-17T07:20:18.039Z,95240.19
2023-03-17T07:22:46.671Z,95219.75
2023-03-17T07:25:15.514Z,95239.22
2023-03-17T07:27:45.874Z,95238.44
2023-03-17T07:30:19.206Z,95229.59
2023-03-17T07:32:47.809Z,95213.53
2023-03-17T07:35:16.578Z,95215.28
2023-03-17T07:37:44.881Z,95226.84
2023-03-17T07:40:14.471Z,95234.44
2023-03-17T07:42:45.643Z,95232.88
2023-03-17T07:45:13.949Z,95227.06
2023-03-17T07:47:42.274Z,95224.16
2023-03-17T07:50:11.504Z,95211.81
2023-03-17T07:52:39.940Z,95217.75
2023-03-17T07:55:10.692Z,95219.16
2023-03-17T07:57:39.171Z,95201.22
2023-03-17T08:00:13.973Z,95184.00
2023-03-17T08:02:42.505Z,95214.09
2023-03-17T08:05:11.691Z,95211.16
2023-03-17T08:07:40.635Z,95201.00
2023-03-17T08:10:11.835Z,95204.19
2023-03-17T08:12:40.240Z,95202.84
2023-03-17T08:15:11.242Z,95203.41
2023-03-17T08:17:40.267Z,95171.75
2023-03-17T08:20:10.176Z,95201.03
2023-03-17T08:22:38.583Z,95160.00
2023-03-17T08:25:07.704Z,95180.41
2023-03-17T08:27:36.466Z,95181.47
2023-03-17T08:30:06.098Z,95163.25
2023-03-17T08:32:37.198Z,95179.59
2023-03-17T08:35:06.504Z,95175.03
2023-03-17T08:37:35.022Z,95137.75
2023-03-17T08:40:05.491Z,95177.47
2023-03-17T08:42:33.779Z,95178.78
2023-03-17T08:45:02.136Z,95183.88
2023-03-17T08:47:30.482Z,95153.84
2023-03-17T08:50:00.899Z,95188.44
2023-03-17T08:52:29.785Z,95190.06
2023-03-17T08:54:58.079Z,95173.41
2023-03-17T08:57:28.036Z,95181.97
2023-03-17T08:59:56.634Z,95094.53
2023-03-17T09:02:25.014Z,95172.25
2023-03-17T09:04:54.374Z,95182.69
2023-03-17T09:07:24.077Z,95177.28
2023-03-17T09:09:52.754Z,95162.53
2023-03-17T09:12:21.154Z,95160.09
2023-03-17T09:14:49.539Z,95180.22
2023-03-17T09:17:17.889Z,95183.69
2023-03-17T09:19:46.222Z,95189.88
2023-03-17T09:22:16.159Z,95182.34
2023-03-17T09:24:46.755Z,95162.53
2023-03-17T09:27:15.774Z,95195.75
2023-03-17T09:29:44.434Z,95158.19
2023-03-17T09:32:12.927Z,95180.19
2023-03-17T09:34:42.128Z,95187.66
2023-03-17T09:37:11.069Z,95182.78
2023-03-17T09:39:39.347Z,95184.91
2023-03-17T09:42:24.730Z,95189.69
2023-03-17T09:45:12.446Z,95182.63
2023-03-17T09:48:02.127Z,95186.97
2023-03-17T09:50:36.306Z,95188.53
2023-03-17T09:53:05.656Z,95179.94
2023-03-17T09:55:38.244Z,95176.41
2023-03-17T09:58:11.367Z,95174.50
2023-03-17T10:00:40.207Z,95170.81
2023-03-17T10:03:13.033Z,95176.19
2023-03-17T10:05:41.324Z,95145.06
2023-03-17T10:08:30.009Z,95180.63
2023-03-17T10:11:09.554Z,95170.78
2023-03-17T10:13:55.094Z,95158.66
2023-03-17T10:16:30.977Z,95176.31
2023-03-17T10:19:04.652Z,95178.41
2023-03-17T10:21:37.018Z,95144.81
2023-03-17T10:24:07.142Z,95160.34
2023-03-17T10:26:40.680Z,95163.97
2023-03-17T10:29:16.069Z,95129.59
2023-03-17T10:31:45.003Z,95156.09
2023-03-17T10:34:15.435Z,95105.47
2023-03-17T10:36:46.032Z,95112.25
2023-03-17T10:39:18.729Z,95143.22
2023-03-17T10:41:55.697Z,95133.91
2023-03-17T10:44:42.370Z,95145.44
2023-03-17T10:47:24.587Z,95139.09
2023-03-17T10:49:53.920Z,95146.47
2023-03-17T10:52:27.587Z,95129.31
2023-03-17T10:54:55.929Z,95136.91
2023-03-17T10:57:24.271Z,95119.69
2023-03-17T10:59:55.630Z,95121.44
2023-03-17T11:02:29.554Z,95122.91
2023-03-17T11:05:03.046Z,95117.13
2023-03-17T11:07:38.277Z,95126.16
2023-03-17T11:10:18.593Z,95121.84
2023-03-17T11:12:50.689Z,95128.75
2023-03-17T11:15:20.822Z,95131.47
2023-03-17T11:17:59.704Z,95133.97
2023-03-17T11:20:45.576Z,95117.16
2023-03-17T11:23:23.767Z,95119.16
2023-03-17T11:26:03.370Z,95082.50
2023-03-17T11:28:41.208Z,95109.94
2023-03-17T11:31:17.419Z,95116.31
2023-03-17T11:33:58.165Z,95115.13
2023-03-17T11:36:51.835Z,95100.91
2023-03-17T11:39:26.811Z,95107.72
2023-03-17T11:42:07.502Z,95111.63
2023-03-17T11:45:01.513Z,95087.97
2023-03-17T11:47:43.148Z,95126.53
2023-03-17T11:50:23.147Z,95099.47
2023-03-17T11:53:03.794Z,95113.47
2023-03-17T11:55:43.101Z,95059.78
2023-03-17T11:58:17.112Z,95107.88
2023-03-17T12:00:52.722Z,95100.00
2023-03-17T12:03:28.968Z,95113.28
2023-03-17T12:06:02.000Z,95115.38
2023-03-17T12:08:39.434Z,95109.53
2023-03-17T12:11:12.285Z,95116.84
2023-03-17T12:13:46.729Z,95106.84
2023-03-17T12:16:19.755Z,95126.16
2023-03-17T12:18:59.291Z,95106.19
2023-03-17T12:21:34.399Z,95111.19
2023-03-17T12:24:10.099Z,95116.19
2023-03-17T12:26:42.142Z,95127.44
2023-03-17T12:29:16.129Z,95120.44
2023-03-17T12:31:48.207Z,95126.81
2023-03-17T12:34:22.630Z,95073.16
2023-03-17T12:36:51.641Z,95109.78
2023-03-17T12:39:24.295Z,95096.84
2023-03-17T12:42:20.047Z,95102.16
2023-03-17T12:45:19.848Z,95098.50
2023-03-17T12:47:58.959Z,95091.00
2023-03-17T12:50:51.797Z,95083.13
2023-03-17T12:53:32.664Z,95086.22
2023-03-17T12:56:08.272Z,95086.78
2023-03-17T12:58:40.666Z,95090.88
2023-03-17T13:01:23.113Z,95079.69
2023-03-17T13:04:06.762Z,95036.59
2023-03-17T13:06:42.721Z,95079.69
2023-03-17T13:09:36.164Z,95068.56
2023-03-17T13:12:05.861Z,95066.81
2023-03-17T13:14:43.563Z,95067.03
2023-03-17T13:17:33.741Z,95063.06
2023-03-17T13:20:15.276Z,95052.03
2023-03-17T13:23:04.112Z,95035.78
2023-03-17T13:25:36.211Z,95039.94
2023-03-17T13:28:27.194Z,95047.88
2023-03-17T13:31:11.626Z,95047.88
2023-03-17T13:33:46.867Z,95044.88
2023-03-17T13:36:27.407Z,95045.69
2023-03-17T13:39:21.855Z,95039.41
2023-03-17T13:42:18.788Z,95045.34
2023-03-17T13:45:13.466Z,95031.44
2023-03-17T13:47:43.792Z,95036.31
2023-03-17T13:50:17.278Z,95032.59
2023-03-17T13:52:50.011Z,95031.25
2023-03-17T13:55:36.152Z,95031.25
2023-03-17T13:58:27.617Z,95033.53
2023-03-17T14:01:03.979Z,95028.56
2023-03-17T14:03:39.393Z,95033.69
2023-03-17T14:06:12.037Z,94990.13
2023-03-17T14:08:49.210Z,95018.66
2023-03-17T14:11:33.965Z,95003.34
2023-03-17T14:14:32.550Z,95019.28
2023-03-17T14:17:06.593Z,95017.50
2023-03-17T14:19:35.165Z,95012.56
2023-03-17T14:22:05.664Z,95016.66
2023-03-17T14:24:35.255Z,95024.00
2023-03-17T14:27:09.101Z,95017.84
2023-03-17T14:29:39.222Z,95020.19
2023-03-17T14:32:13.477Z,95016.00
2023-03-17T14:34:44.776Z,95008.97
2023-03-17T14:37:14.184Z,95015.31
2023-03-17T14:39:47.474Z,95016.31
2023-03-17T14:42:20.825Z,95012.31
2023-03-17T14:44:49.171Z,94998.56
2023-03-17T14:47:22.299Z,95002.41
2023-03-17T14:49:52.584Z,95019.44
2023-03-17T14:52:25.266Z,95008.44
2023-03-17T14:54:55.283Z,95004.50
2023-03-17T14:57:30.314Z,94986.47
2023-03-17T15:00:00.848Z,94997.28
2023-03-17T15:02:34.969Z,94999.38
2023-03-17T15:05:18.730Z,94997.44
2023-03-17T15:07:47.125Z,94999.41
2023-03-17T15:10:17.918Z,95006.91
2023-03-17T15:12:48.597Z,95002.13
2023-03-17T15:15:24.475Z,94994.00
2023-03-17T15:17:56.121Z,94992.66
2023-03-17T15:20:25.462Z,94921.44
2023-03-17T15:22:59.692Z,94981.78
2023-03-17T15:25:34.873Z,94990.16
2023-03-17T15:28:12.308Z,94988.75
2023-03-17T15:30:47.777Z,94986.34
2023-03-17T15:33:22.936Z,94986.34
2023-03-17T15:35:51.788Z,94959.16
2023-03-17T15:38:20.200Z,94988.97
2023-03-17T15:40:48.893Z,94986.81
2023-03-17T15:43:21.774Z,94965.91
2023-03-17T15:45:56.108Z,94964.63
2023-03-17T15:48:28.006Z,94955.28
2023-03-17T15:50:57.970Z,94871.25
2023-03-17T15:53:26.886Z,94945.28
2023-03-17T15:55:55.733Z,94943.56
2023-03-17T15:58:26.353Z,94953.72
2023-03-17T16:00:57.640Z,94967.25
2023-03-17T16:03:30.423Z,94963.59
2023-03-17T16:05:59.993Z,94889.88
2023-03-17T16:08:29.264Z,94953.03
2023-03-17T16:10:58.517Z,94957.72
2023-03-17T16:13:28.282Z,94921.91
2023-03-17T16:15:58.416Z,94916.38
2023-03-17T16:18:32.778Z,94956.03
2023-03-17T16:21:02.985Z,94961.00
2023-03-17T16:23:35.859Z,94962.72
2023-03-17T16:26:14.637Z,94929.72
2023-03-17T16:28:47.761Z,94957.25
2023-03-17T16:31:25.699Z,94959.75
2023-03-17T16:33:57.464Z,94960.16
2023-03-17T16:36:26.665Z,94934.94
2023-03-17T16:38:55.750Z,94873.91
2023-03-17T16:41:27.550Z,94937.97
2023-03-17T16:44:01.348Z,94915.13
2023-03-17T16:46:35.211Z,94926.47
2023-03-17T16:49:04.306Z,94938.16
2023-03-17T16:51:32.668Z,94906.50
2023-03-17T16:54:01.231Z,94928.56
2023-03-17T16:56:30.107Z,94937.88
2023-03-17T16:59:00.276Z,94900.56
2023-03-17T17:01:29.969Z,94939.38
2023-03-17T17:03:58.440Z,94935.47
2023-03-17T17:06:26.984Z,94937.78
2023-03-17T17:08:55.713Z,94938.97
2023-03-17T17:11:24.017Z,94934.16
2023-03-17T17:13:52.705Z,94882.19
2023-03-17T17:16:29.327Z,94907.88
2023-03-17T17:18:59.190Z,94914.19
2023-03-17T17:21:28.063Z,94939.00
2023-03-17T17:23:57.228Z,94934.59
2023-03-17T17:26:25.958Z,94956.13
2023-03-17T17:28:54.649Z,94961.50
2023-03-17T17:31:24.524Z,94959.81
2023-03-17T17:33:53.249Z,94643.53
2023-03-17T17:36:21.586Z,94964.81
2023-03-17T17:38:51.482Z,94969.41
2023-03-17T17:41:21.759Z,94960.59
2023-03-17T17:43:50.185Z,94965.59
2023-03-17T17:46:20.690Z,94968.81
2023-03-17T17:48:51.229Z,94974.56
2023-03-17T17:51:19.636Z,94971.38
2023-03-17T17:53:48.013Z,94987.47
2023-03-17T17:56:17.846Z,94958.16
2023-03-17T17:58:46.647Z,94983.88
2023-03-17T18:01:20.056Z,94983.16
2023-03-17T18:03:50.098Z,94981.59
2023-03-17T18:06:18.549Z,94981.38
2023-03-17T18:08:47.159Z,94992.88
2023-03-17T18:11:15.688Z,94984.88
2023-03-17T18:13:43.982Z,94986.84
2023-03-17T18:16:16.466Z,94981.94
2023-03-17T18:18:46.122Z,94971.25
2023-03-17T18:21:16.160Z,94993.97
2023-03-17T18:23:47.348Z,94983.16
2023-03-17T18:26:16.779Z,94907.47
2023-03-17T18:28:45.639Z,94988.94
2023-03-17T18:31:17.846Z,95006.69
2023-03-17T18:33:47.281Z,95008.91
2023-03-17T18:36:17.295Z,95012.31
2023-03-17T18:38:45.597Z,95016.63
2023-03-17T18:41:14.241Z,95011.50
2023-03-17T18:43:45.002Z,95020.50
2023-03-17T18:46:14.037Z,95018.91
2023-03-17T18:48:42.537Z,95019.78
2023-03-17T18:51:10.807Z,95008.47
2023-03-17T18:53:40.566Z,94997.75
2023-03-17T18:56:09.504Z,95017.69
2023-03-17T18:58:37.927Z,95017.78
2023-03-17T19:01:06.739Z,95010.75
2023-03-17T19:03:35.341Z,95019.94
2023-03-17T19:06:14.774Z,94992.22
2023-03-17T19:08:45.445Z,95004.00
2023-03-17T19:11:15.576Z,95009.84
2023-03-17T19:13:45.557Z,95019.88
2023-03-17T19:16:15.449Z,95028.25
2023-03-17T19:18:43.875Z,95036.66
2023-03-17T19:21:13.910Z,95030.03
2023-03-17T19:23:43.885Z,95030.34
2023-03-17T19:26:12.870Z,95048.19
2023-03-17T19:28:41.505Z,95020.78
2023-03-17T19:31:10.064Z,95024.00
2023-03-17T19:33:38.459Z,95035.97
2023-03-17T19:36:09.178Z,95031.16
2023-03-17T19:38:38.381Z,94971.25
2023-03-17T19:41:08.254Z,95017.75
2023-03-17T19:43:41.085Z,95022.63
2023-03-17T19:46:11.121Z,95019.69
2023-03-17T19:48:40.372Z,95014.28
2023-03-17T19:51:09.501Z,95021.31
2023-03-17T19:53:38.659Z,95017.81
2023-03-17T19:56:08.929Z,95015.09
2023-03-17T19:58:37.609Z,95019.69
2023-03-17T20:01:07.076Z,95010.81
2023-03-17T20:03:39.630Z,95005.72
2023-03-17T20:06:08.100Z,95000.19
2023-03-17T20:08:37.026Z,95001.97
2023-03-17T20:11:06.154Z,95007.69
2023-03-17T20:13:38.806Z,94998.63
2023-03-17T20:16:08.382Z,94999.66
2023-03-17T20:18:37.123Z,94978.06
2023-03-17T20:21:07.892Z,94980.78
2023-03-17T20:23:37.934Z,95002.97
2023-03-17T20:26:07.182Z,94996.00
2023-03-17T20:28:38.728Z,94993.59
2023-03-17T20:31:08.252Z,94994.97
2023-03-17T20:33:36.759Z,95010.34
2023-03-17T20:36:05.747Z,95003.63
2023-03-17T20:38:37.053Z,95004.75
2023-03-17T20:41:14.191Z,95003.72
2023-03-17T20:43:44.645Z,95002.69
2023-03-17T20:46:17.238Z,95001.69
2023-03-17T20:48:47.851Z,94977.16
2023-03-17T20:51:17.405Z,95002.38
2023-03-17T20:53:46.559Z,95002.97
2023-03-17T20:56:16.722Z,95004.66
2023-03-17T20:58:48.666Z,94945.38
2023-03-17T21:01:20.992Z,95010.16
2023-03-17T21:03:50.840Z,94947.31
2023-03-17T21:06:20.115Z,95001.59
2023-03-17T21:08:49.172Z,94912.97
2023-03-17T21:11:20.291Z,95007.28
2023-03-17T21:13:51.860Z,95005.44
2023-03-17T21:16:24.048Z,95007.13
2023-03-17T21:18:52.861Z,95010.06
2023-03-17T21:21:22.995Z,94965.44
2023-03-17T21:23:51.532Z,95005.50
2023-03-17T21:26:20.160Z,94863.63
2023-03-17T21:28:51.088Z,94999.13
2023-03-17T21:31:19.577Z,94999.88
2023-03-17T21:33:50.718Z,94966.44
2023-03-17T21:36:20.982Z,94979.28
2023-03-17T21:38:49.662Z,94981.44
2023-03-17T21:41:30.487Z,94984.53
2023-03-17T21:44:00.701Z,94990.00
2023-03-17T21:46:29.740Z,94990.72
2023-03-17T21:48:59.716Z,94992.69
2023-03-17T21:51:30.266Z,94978.75
2023-03-17T21:54:00.106Z,94993.72
2023-03-17T21:56:29.424Z,94985.00
2023-03-17T21:59:00.462Z,94979.03
2023-03-17T22:01:30.350Z,94917.66
2023-03-17T22:03:59.786Z,94975.72
2023-03-17T22:06:29.614Z,94975.13
2023-03-17T22:08:58.186Z,94944.16
2023-03-17T22:11:27.847Z,94865.91
2023-03-17T22:13:57.824Z,94973.75
2023-03-17T22:16:28.566Z,94971.34
2023-03-17T22:18:59.453Z,94980.41
2023-03-17T22:21:29.397Z,94882.75
2023-03-17T22:23:58.958Z,94984.75
2023-03-17T22:26:28.941Z,94986.56
2023-03-17T22:28:57.323Z,94991.78
2023-03-17T22:31:31.321Z,94995.28
2023-03-17T22:34:03.186Z,94994.44
2023-03-17T22:36:33.680Z,95005.78
2023-03-17T22:39:03.578Z,95004.19
2023-03-17T22:41:34.930Z,94903.59
2023-03-17T22:44:05.191Z,94984.44
2023-03-17T22:46:36.702Z,94863.47
2023-03-17T22:49:06.152Z,94996.69
2023-03-17T22:51:36.148Z,95013.06
2023-03-17T22:54:05.050Z,95008.69
2023-03-17T22:56:33.395Z,95011.75
2023-03-17T22:59:02.434Z,94936.72
2023-03-17T23:01:31.991Z,95015.22
2023-03-17T23:04:04.354Z,95028.25
2023-03-17T23:06:33.186Z,95026.59
2023-03-17T23:09:01.644Z,94926.44
2023-03-17T23:11:30.072Z,94741.75
2023-03-17T23:13:58.788Z,95016.56
2023-03-17T23:16:27.330Z,95016.09
2023-03-17T23:18:55.767Z,94998.41
2023-03-17T23:21:29.658Z,95010.66
2023-03-17T23:23:58.026Z,95014.06
2023-03-17T23:26:26.740Z,95018.22
2023-03-17T23:28:56.519Z,95013.56
2023-03-17T23:31:24.951Z,95019.31
2023-03-17T23:33:53.464Z,94992.34
2023-03-17T23:36:22.139Z,95021.66
2023-03-17T23:38:52.593Z,94918.34
2023-03-17T23:41:20.914Z,95026.94
2023-03-17T23:43:49.171Z,95028.19
2023-03-17T23:46:17.881Z,95010.44
2023-03-17T23:48:46.776Z,95029.81
2023-03-17T23:51:15.058Z,95035.13
2023-03-17T23:53:43.575Z,95039.50
2023-03-17T23:56:14.162Z,95049.91
2023-03-17T23:58:43.760Z,95052.97
